createdAt,value
2022-11-26T00:01:22.813Z,101246.22
2022-11-26T00:03:49.776Z,101246.72
2022-11-26T00:06:47.776Z,101249.81
2022-11-26T00:09:19.315Z,101244.16
2022-11-26T00:11:46.229Z,101243.00
2022-11-26T00:14:16.809Z,101247.00
2022-11-26T00:16:44.812Z,101239.53
2022-11-26T00:19:11.844Z,101243.69
2022-11-26T00:21:41.206Z,101244.94
2022-11-26T00:24:27.228Z,101247.53
2022-11-26T00:26:56.232Z,101251.03
2022-11-26T00:29:23.222Z,101261.34
2022-11-26T00:31:50.139Z,101265.34
2022-11-26T00:34:17.044Z,101277.53
2022-11-26T00:36:44.938Z,101277.06
2022-11-26T00:39:17.073Z,101284.75
2022-11-26T00:41:48.790Z,101289.69
2022-11-26T00:44:25.657Z,101296.97
2022-11-26T00:46:52.907Z,101292.88
2022-11-26T00:49:20.928Z,101295.63
2022-11-26T00:51:48.174Z,101291.78
2022-11-26T00:54:17.994Z,101289.75
2022-11-26T00:56:45.767Z,101293.91
2022-11-26T00:59:14.926Z,101297.41
2022-11-26T01:01:42.030Z,101302.06
2022-11-26T01:04:09.371Z,101299.16
2022-11-26T01:06:40.331Z,101293.63
2022-11-26T01:09:12.883Z,101294.09
2022-11-26T01:11:39.804Z,101303.91
2022-11-26T01:14:07.196Z,101300.47
2022-11-26T01:16:39.390Z,101300.03
2022-11-26T01:19:06.367Z,101309.38
2022-11-26T01:21:33.559Z,101304.09
2022-11-26T01:24:00.445Z,101301.75
2022-11-26T01:26:32.826Z,101300.31
2022-11-26T01:28:59.732Z,101293.44
2022-11-26T01:31:29.158Z,101294.50
2022-11-26T01:33:57.166Z,101299.41
2022-11-26T01:36:26.774Z,101308.06
2022-11-26T01:39:02.932Z,101310.81
2022-11-26T01:41:47.451Z,101310.63
2022-11-26T01:44:24.012Z,101311.53
2022-11-26T01:46:55.106Z,101325.59
2022-11-26T01:49:29.382Z,101328.72
2022-11-26T01:52:24.476Z,101322.72
2022-11-26T01:54:53.521Z,101324.72
2022-11-26T01:57:25.206Z,101324.59
2022-11-26T01:59:55.169Z,101322.78
2022-11-26T02:02:25.437Z,101317.00
2022-11-26T02:05:07.736Z,101323.84
2022-11-26T02:07:36.297Z,101322.59
2022-11-26T02:10:03.986Z,101332.31
2022-11-26T02:12:31.013Z,101337.06
2022-11-26T02:14:57.956Z,101344.38
2022-11-26T02:17:24.805Z,101344.66
2022-11-26T02:20:00.420Z,101345.19
2022-11-26T02:22:57.017Z,101352.31
2022-11-26T02:25:23.800Z,101355.16
2022-11-26T02:28:05.552Z,101360.66
2022-11-26T02:30:37.992Z,101364.66
2022-11-26T02:33:11.800Z,101365.56
2022-11-26T02:35:38.600Z,101367.16
2022-11-26T02:38:13.733Z,101365.19
2022-11-26T02:40:40.611Z,101362.78
2022-11-26T02:43:07.432Z,101373.06
2022-11-26T02:45:41.095Z,101371.34
2022-11-26T02:48:13.589Z,101368.63
2022-11-26T02:50:48.097Z,101374.50
2022-11-26T02:53:17.733Z,101374.78
2022-11-26T02:55:49.886Z,101371.56
2022-11-26T02:58:18.902Z,101378.44
2022-11-26T03:00:48.498Z,101376.78
2022-11-26T03:03:30.234Z,101378.66
2022-11-26T03:06:02.102Z,101376.91
2022-11-26T03:08:30.725Z,101388.16
2022-11-26T03:10:57.916Z,101389.78
2022-11-26T03:13:24.949Z,101398.66
2022-11-26T03:15:52.117Z,101409.88
2022-11-26T03:18:19.134Z,101414.00
2022-11-26T03:20:45.985Z,101416.19
2022-11-26T03:23:12.813Z,101421.72
2022-11-26T03:25:39.988Z,101422.94
2022-11-26T03:28:07.177Z,101417.16
2022-11-26T03:30:34.051Z,101417.72
2022-11-26T03:33:00.880Z,101413.63
2022-11-26T03:35:27.788Z,101420.91
2022-11-26T03:37:54.795Z,101428.91
2022-11-26T03:40:21.720Z,101427.28
2022-11-26T03:42:48.542Z,101424.63
2022-11-26T03:45:15.434Z,101418.94
2022-11-26T03:47:42.270Z,101414.41
2022-11-26T03:50:09.573Z,101409.16
2022-11-26T03:52:36.624Z,101408.06
2022-11-26T03:55:03.581Z,101406.66
2022-11-26T03:57:30.451Z,101411.38
2022-11-26T03:59:57.376Z,101409.94
2022-11-26T04:02:24.298Z,101409.22
2022-11-26T04:04:51.340Z,101411.53
2022-11-26T04:07:18.442Z,101408.31
2022-11-26T04:09:45.343Z,101421.16
2022-11-26T04:12:12.188Z,101422.19
2022-11-26T04:14:39.250Z,101419.13
2022-11-26T04:17:06.427Z,101433.28
2022-11-26T04:19:33.265Z,101440.91
2022-11-26T04:22:00.134Z,101431.13
2022-11-26T04:24:27.117Z,101435.06
2022-11-26T04:26:54.087Z,101421.94
2022-11-26T04:29:21.052Z,101421.00
2022-11-26T04:31:48.037Z,101427.97
2022-11-26T04:34:14.936Z,101423.53
2022-11-26T04:36:41.862Z,101418.91
2022-11-26T04:39:08.727Z,101430.44
2022-11-26T04:41:35.561Z,101438.94
2022-11-26T04:44:02.440Z,101443.91
2022-11-26T04:46:29.337Z,101450.16
2022-11-26T04:48:56.240Z,101466.09
2022-11-26T04:51:23.100Z,101476.84
2022-11-26T04:53:51.407Z,101474.13
2022-11-26T04:56:21.540Z,101491.09
2022-11-26T04:58:48.468Z,101490.16
2022-11-26T05:01:15.461Z,101483.34
2022-11-26T05:03:42.887Z,101495.22
2022-11-26T05:06:10.903Z,101495.97
2022-11-26T05:08:37.833Z,101498.69
2022-11-26T05:11:05.095Z,101503.06
2022-11-26T05:13:32.066Z,101495.28
2022-11-26T05:15:59.124Z,101495.28
2022-11-26T05:18:25.981Z,101501.84
2022-11-26T05:20:52.809Z,101500.22
2022-11-26T05:23:19.706Z,101501.41
2022-11-26T05:25:47.928Z,101500.19
2022-11-26T05:28:14.925Z,101498.06
2022-11-26T05:30:42.071Z,101498.59
2022-11-26T05:33:08.967Z,101491.59
2022-11-26T05:35:37.625Z,101485.72
2022-11-26T05:38:04.587Z,101491.97
2022-11-26T05:40:31.544Z,101490.91
2022-11-26T05:42:58.434Z,101486.41
2022-11-26T05:45:25.330Z,101500.09
2022-11-26T05:47:52.259Z,101511.72
2022-11-26T05:50:19.257Z,101513.59
2022-11-26T05:52:46.176Z,101512.28
2022-11-26T05:55:13.165Z,101510.56
2022-11-26T05:57:40.113Z,101517.91
2022-11-26T06:00:07.728Z,101530.00
2022-11-26T06:02:39.377Z,101533.84
2022-11-26T06:05:07.013Z,101532.34
2022-11-26T06:07:33.993Z,101538.47
2022-11-26T06:10:01.097Z,101528.47
2022-11-26T06:12:28.329Z,101546.56
2022-11-26T06:14:55.190Z,101549.72
2022-11-26T06:17:22.186Z,101548.78
2022-11-26T06:19:49.179Z,101551.28
2022-11-26T06:22:16.059Z,101560.72
2022-11-26T06:24:42.979Z,101550.84
2022-11-26T06:27:10.438Z,101554.66
2022-11-26T06:29:37.313Z,101547.03
2022-11-26T06:32:04.557Z,101555.38
2022-11-26T06:34:31.439Z,101552.28
2022-11-26T06:36:58.297Z,101566.28
2022-11-26T06:39:25.236Z,101564.19
2022-11-26T06:41:52.144Z,101552.69
2022-11-26T06:44:19.148Z,101562.22
2022-11-26T06:46:46.107Z,101568.34
2022-11-26T06:49:13.010Z,101570.66
2022-11-26T06:51:40.022Z,101573.19
2022-11-26T06:54:06.868Z,101577.97
2022-11-26T06:56:35.794Z,101577.53
2022-11-26T06:59:02.850Z,101577.53
2022-11-26T07:01:30.074Z,101581.63
2022-11-26T07:03:57.026Z,101576.16
2022-11-26T07:06:26.674Z,101584.38
2022-11-26T07:08:54.986Z,101562.78
2022-11-26T07:11:22.546Z,101581.03
2022-11-26T07:13:49.629Z,101581.03
2022-11-26T07:16:16.880Z,101578.72
2022-11-26T07:18:47.542Z,101569.53
2022-11-26T07:21:14.464Z,101578.59
2022-11-26T07:23:42.077Z,101573.00
2022-11-26T07:26:10.810Z,101570.78
2022-11-26T07:28:38.056Z,101575.22
2022-11-26T07:31:16.172Z,101578.78
2022-11-26T07:33:44.062Z,101584.88
2022-11-26T07:36:22.254Z,101576.81
2022-11-26T07:38:49.825Z,101583.13
2022-11-26T07:41:20.084Z,101572.53
2022-11-26T07:43:47.306Z,101582.31
2022-11-26T07:46:17.288Z,101583.91
2022-11-26T07:48:44.674Z,101589.34
2022-11-26T07:51:23.711Z,101586.41
2022-11-26T07:53:51.552Z,101588.34
2022-11-26T07:56:19.482Z,101580.59
2022-11-26T07:58:46.834Z,101587.66
2022-11-26T08:01:19.476Z,101582.91
2022-11-26T08:03:48.709Z,101590.84
2022-11-26T08:06:18.356Z,101592.31
2022-11-26T08:08:45.268Z,101597.22
2022-11-26T08:11:18.030Z,101592.91
2022-11-26T08:13:45.963Z,101586.56
2022-11-26T08:16:13.881Z,101590.59
2022-11-26T08:18:40.942Z,101595.84
2022-11-26T08:21:08.195Z,101603.66
2022-11-26T08:23:35.560Z,101599.41
2022-11-26T08:26:23.796Z,101597.94
2022-11-26T08:28:52.510Z,101602.84
2022-11-26T08:31:19.822Z,101602.47
2022-11-26T08:33:46.818Z,101600.09
2022-11-26T08:36:13.821Z,101607.50
2022-11-26T08:38:40.869Z,101599.28
2022-11-26T08:41:11.357Z,101606.06
2022-11-26T08:44:05.241Z,101604.81
2022-11-26T08:46:26.240Z,101618.97
2022-11-26T08:48:56.596Z,101624.97
2022-11-26T08:51:24.435Z,101612.97
2022-11-26T08:53:51.366Z,101622.38
2022-11-26T08:56:18.288Z,101617.06
2022-11-26T08:58:45.710Z,101603.66
2022-11-26T09:01:14.737Z,101599.44
2022-11-26T09:03:41.934Z,101599.84
2022-11-26T09:06:09.924Z,101601.25
2022-11-26T09:09:06.277Z,101596.13
2022-11-26T09:11:36.043Z,101597.53
2022-11-26T09:14:03.718Z,101589.75
2022-11-26T09:16:31.285Z,101586.66
2022-11-26T09:19:01.144Z,101591.81
2022-11-26T09:21:28.065Z,101603.81
2022-11-26T09:23:55.380Z,101596.03
2022-11-26T09:26:22.871Z,101610.47
2022-11-26T09:28:49.746Z,101594.25
2022-11-26T09:31:17.856Z,101592.69
2022-11-26T09:33:45.225Z,101589.56
2022-11-26T09:36:14.812Z,101579.91
2022-11-26T09:38:42.286Z,101581.41
2022-11-26T09:41:24.030Z,101575.03
2022-11-26T09:44:14.276Z,101577.78
2022-11-26T09:47:24.086Z,101562.63
2022-11-26T09:50:19.457Z,101572.28
2022-11-26T09:52:46.312Z,101572.25
2022-11-26T09:55:18.633Z,101567.47
2022-11-26T09:58:10.877Z,101567.59
2022-11-26T10:00:46.694Z,101560.22
2022-11-26T10:03:23.199Z,101576.31
2022-11-26T10:05:59.073Z,101565.69
2022-11-26T10:08:30.218Z,101564.47
2022-11-26T10:11:08.941Z,101549.16
2022-11-26T10:13:57.445Z,101546.69
2022-11-26T10:16:29.679Z,101553.53
2022-11-26T10:19:05.411Z,101548.31
2022-11-26T10:24:29.525Z,101552.88
2022-11-26T10:26:59.030Z,101550.66
2022-11-26T10:29:39.405Z,101541.25
2022-11-26T10:32:39.899Z,101548.06
2022-11-26T10:35:07.432Z,101561.72
2022-11-26T10:37:34.593Z,101559.44
2022-11-26T10:40:07.515Z,101557.09
2022-11-26T10:42:43.660Z,101548.31
2022-11-26T10:45:21.003Z,101544.94
2022-11-26T10:47:48.051Z,101568.56
2022-11-26T10:50:46.519Z,101562.53
2022-11-26T10:53:07.077Z,101550.16
2022-11-26T10:55:43.682Z,101556.53
2022-11-26T10:58:24.273Z,101556.47
2022-11-26T11:00:51.269Z,101559.75
2022-11-26T11:03:33.152Z,101562.50
2022-11-26T11:06:21.394Z,101563.22
2022-11-26T11:08:50.378Z,101576.59
2022-11-26T11:11:28.711Z,101569.31
2022-11-26T11:13:56.869Z,101577.28
2022-11-26T11:16:29.831Z,101578.09
2022-11-26T11:18:59.767Z,101586.00
2022-11-26T11:21:34.498Z,101588.50
2022-11-26T11:24:16.650Z,101587.03
2022-11-26T11:26:46.422Z,101571.94
2022-11-26T11:29:37.631Z,101576.41
2022-11-26T11:32:37.638Z,101578.72
2022-11-26T11:35:26.019Z,101577.56
2022-11-26T11:37:54.959Z,101575.66
2022-11-26T11:40:29.140Z,101574.44
2022-11-26T11:43:05.212Z,101574.63
2022-11-26T11:45:41.896Z,101564.53
2022-11-26T11:48:29.851Z,101555.34
2022-11-26T11:51:11.959Z,101559.88
2022-11-26T11:54:29.546Z,101562.09
2022-11-26T11:57:19.466Z,101550.81
2022-11-26T12:00:13.612Z,101549.19
2022-11-26T12:02:55.593Z,101563.88
2022-11-26T12:06:03.079Z,101563.41
2022-11-26T12:09:04.205Z,101557.56
2022-11-26T12:11:55.848Z,101564.50
2022-11-26T12:14:38.633Z,101553.81
2022-11-26T12:17:16.438Z,101565.72
2022-11-26T12:19:49.349Z,101564.09
2022-11-26T12:22:24.636Z,101568.22
2022-11-26T12:25:01.730Z,101570.59
2022-11-26T12:28:01.790Z,101585.59
2022-11-26T12:30:40.739Z,101572.75
2022-11-26T12:33:17.075Z,101577.34
2022-11-26T12:35:53.899Z,101569.19
2022-11-26T12:38:37.036Z,101575.53
2022-11-26T12:41:10.971Z,101573.66
2022-11-26T12:43:52.919Z,101562.38
2022-11-26T12:46:28.770Z,101571.34
2022-11-26T12:49:22.883Z,101566.06
2022-11-26T12:51:56.561Z,101574.72
2022-11-26T12:54:38.654Z,101572.03
2022-11-26T12:57:26.924Z,101579.00
2022-11-26T12:59:56.650Z,101568.09
2022-11-26T13:02:39.533Z,101580.09
2022-11-26T13:05:07.133Z,101589.72
2022-11-26T13:08:19.264Z,101583.16
2022-11-26T13:11:10.057Z,101585.91
2022-11-26T13:13:55.529Z,101597.34
2022-11-26T13:16:38.036Z,101591.19
2022-11-26T13:19:27.517Z,101597.16
2022-11-26T13:22:18.796Z,101597.47
2022-11-26T13:25:19.189Z,101596.59
2022-11-26T13:27:58.216Z,101587.63
2022-11-26T13:30:48.626Z,101596.06
2022-11-26T13:33:41.919Z,101596.13
2022-11-26T13:36:46.804Z,101615.66
2022-11-26T13:39:38.576Z,101609.16
2022-11-26T13:42:26.999Z,101614.06
2022-11-26T13:44:56.564Z,101613.59
2022-11-26T13:47:42.136Z,101613.97
2022-11-26T13:50:23.288Z,101617.53
2022-11-26T13:52:56.525Z,101619.28
2022-11-26T13:55:52.731Z,101625.41
2022-11-26T13:58:29.200Z,101620.88
2022-11-26T14:00:56.418Z,101619.25
2022-11-26T14:03:44.233Z,101629.84
2022-11-26T14:06:11.804Z,101628.97
2022-11-26T14:08:43.317Z,101628.97
2022-11-26T14:11:11.650Z,101636.00
2022-11-26T14:13:38.920Z,101638.47
2022-11-26T14:16:07.942Z,101641.59
2022-11-26T14:18:52.896Z,101652.69
2022-11-26T14:21:21.108Z,101650.00
2022-11-26T14:23:51.748Z,101659.03
2022-11-26T14:26:25.643Z,101659.44
2022-11-26T14:29:14.252Z,101666.94
2022-11-26T14:31:51.748Z,101664.63
2022-11-26T14:34:38.916Z,101664.50
2022-11-26T14:37:14.544Z,101670.06
2022-11-26T14:39:41.451Z,101672.59
2022-11-26T14:42:15.575Z,101680.00
2022-11-26T14:44:42.836Z,101687.53
2022-11-26T14:47:20.962Z,101685.88
2022-11-26T14:49:54.465Z,101686.34
2022-11-26T14:52:29.096Z,101688.09
2022-11-26T14:55:01.179Z,101686.88
2022-11-26T14:57:49.487Z,101691.97
2022-11-26T15:00:16.445Z,101699.81
2022-11-26T15:02:48.459Z,101699.50
2022-11-26T15:05:17.303Z,101697.56
2022-11-26T15:07:45.268Z,101699.41
2022-11-26T15:10:15.271Z,101699.50
2022-11-26T15:12:47.611Z,101697.88
2022-11-26T15:15:18.407Z,101709.13
2022-11-26T15:17:52.550Z,101705.84
2022-11-26T15:20:20.542Z,101713.00
2022-11-26T15:23:00.205Z,101716.13
2022-11-26T15:25:29.199Z,101718.00
2022-11-26T15:28:01.492Z,101714.06
2022-11-26T15:30:30.029Z,101717.81
2022-11-26T15:33:08.840Z,101729.69
2022-11-26T15:35:36.595Z,101730.56
2022-11-26T15:38:13.628Z,101735.66
2022-11-26T15:40:54.077Z,101734.50
2022-11-26T15:43:30.230Z,101736.16
2022-11-26T15:46:21.596Z,101740.34
2022-11-26T15:49:01.218Z,101734.91
2022-11-26T15:51:35.858Z,101728.72
2022-11-26T15:54:20.411Z,101730.47
2022-11-26T15:56:52.747Z,101741.81
2022-11-26T15:59:20.844Z,101738.94
2022-11-26T16:01:48.197Z,101744.41
2022-11-26T16:04:33.211Z,101745.81
2022-11-26T16:07:20.002Z,101749.91
2022-11-26T16:09:48.449Z,101753.16
2022-11-26T16:13:04.735Z,101750.28
2022-11-26T16:15:31.932Z,101757.38
2022-11-26T16:17:59.006Z,101759.16
2022-11-26T16:20:28.355Z,101754.50
2022-11-26T16:22:58.770Z,101748.84
2022-11-26T16:25:31.769Z,101763.53
2022-11-26T16:28:14.813Z,101762.97
2022-11-26T16:30:44.256Z,101758.81
2022-11-26T16:33:11.390Z,101755.66
2022-11-26T16:35:47.096Z,101753.91
2022-11-26T16:38:26.000Z,101755.03
2022-11-26T16:40:53.101Z,101759.16
2022-11-26T16:43:20.543Z,101754.06
2022-11-26T16:45:49.652Z,101763.31
2022-11-26T16:48:26.678Z,101758.50
2022-11-26T16:50:57.035Z,101759.09
2022-11-26T16:53:23.963Z,101764.94
2022-11-26T16:55:53.671Z,101765.25
2022-11-26T16:58:29.301Z,101768.72
2022-11-26T17:00:57.236Z,101763.50
2022-11-26T17:03:27.498Z,101764.06
2022-11-26T17:05:58.558Z,101768.50
2022-11-26T17:08:25.553Z,101762.66
2022-11-26T17:10:52.510Z,101763.22
2022-11-26T17:13:20.732Z,101758.38
2022-11-26T17:15:49.410Z,101761.41
2022-11-26T17:18:25.967Z,101773.03
2022-11-26T17:20:54.022Z,101780.25
2022-11-26T17:23:21.390Z,101769.97
2022-11-26T17:25:54.341Z,101770.19
2022-11-26T17:28:23.341Z,101776.50
2022-11-26T17:30:51.063Z,101777.63
2022-11-26T17:33:19.159Z,101777.53
2022-11-26T17:35:46.832Z,101775.38
2022-11-26T17:38:20.055Z,101783.28
2022-11-26T17:40:48.056Z,101782.94
2022-11-26T17:43:15.155Z,101786.75
2022-11-26T17:45:42.220Z,101794.28
2022-11-26T17:48:14.242Z,101794.16
2022-11-26T17:50:41.549Z,101798.88
2022-11-26T17:53:08.591Z,101800.41
2022-11-26T17:55:35.845Z,101800.22
2022-11-26T17:58:02.749Z,101799.78
2022-11-26T18:00:30.290Z,101807.50
2022-11-26T18:02:57.442Z,101807.28
2022-11-26T18:05:24.676Z,101791.22
2022-11-26T18:07:51.988Z,101791.69
2022-11-26T18:10:20.734Z,101804.34
2022-11-26T18:12:48.192Z,101804.44
2022-11-26T18:15:20.668Z,101803.63
2022-11-26T18:17:51.139Z,101801.81
2022-11-26T18:20:21.537Z,101800.56
2022-11-26T18:22:59.769Z,101801.63
2022-11-26T18:25:27.969Z,101808.69
2022-11-26T18:27:55.078Z,101809.28
2022-11-26T18:30:22.607Z,101801.34
2022-11-26T18:32:49.659Z,101802.84
2022-11-26T18:35:17.301Z,101805.19
2022-11-26T18:37:44.729Z,101802.19
2022-11-26T18:40:15.163Z,101811.44
2022-11-26T18:42:42.071Z,101808.97
2022-11-26T18:45:11.851Z,101812.59
2022-11-26T18:47:39.200Z,101810.97
2022-11-26T18:50:07.850Z,101810.38
2022-11-26T18:52:35.140Z,101809.94
2022-11-26T18:55:04.906Z,101816.56
2022-11-26T18:57:32.440Z,101816.16
2022-11-26T18:59:59.327Z,101823.13
2022-11-26T19:02:26.346Z,101821.91
2022-11-26T19:04:53.439Z,101817.91
2022-11-26T19:07:20.372Z,101824.81
2022-11-26T19:09:48.582Z,101824.56
2022-11-26T19:12:15.492Z,101835.25
2022-11-26T19:14:42.424Z,101832.47
2022-11-26T19:17:09.547Z,101831.75
2022-11-26T19:19:38.452Z,101833.53
2022-11-26T19:22:05.565Z,101840.75
2022-11-26T19:24:32.458Z,101839.09
2022-11-26T19:26:59.485Z,101838.38
2022-11-26T19:29:26.328Z,101838.56
2022-11-26T19:31:53.615Z,101837.88
2022-11-26T19:34:20.648Z,101843.06
2022-11-26T19:36:48.647Z,101842.13
2022-11-26T19:39:16.892Z,101845.53
2022-11-26T19:41:44.314Z,101849.97
2022-11-26T19:44:11.658Z,101846.63
2022-11-26T19:46:41.484Z,101847.94
2022-11-26T19:49:12.571Z,101851.63
2022-11-26T19:51:40.508Z,101860.28
2022-11-26T19:54:07.536Z,101852.69
2022-11-26T19:56:35.400Z,101852.56
2022-11-26T19:59:02.529Z,101851.44
2022-11-26T20:01:31.852Z,101845.69
2022-11-26T20:04:01.274Z,101847.25
2022-11-26T20:06:29.809Z,101847.88
2022-11-26T20:08:58.443Z,101849.28
2022-11-26T20:11:26.754Z,101846.81
2022-11-26T20:13:54.542Z,101845.31
2022-11-26T20:16:25.183Z,101851.34
2022-11-26T20:18:52.266Z,101854.94
2022-11-26T20:21:22.215Z,101847.31
2022-11-26T20:23:50.358Z,101853.84
2022-11-26T20:26:23.177Z,101850.59
2022-11-26T20:28:50.253Z,101849.94
2022-11-26T20:31:23.060Z,101848.50
2022-11-26T20:33:54.124Z,101847.56
2022-11-26T20:36:23.191Z,101858.22
2022-11-26T20:38:54.989Z,101861.25
2022-11-26T20:41:23.324Z,101855.50
2022-11-26T20:43:56.528Z,101861.41
2022-11-26T20:46:26.194Z,101850.84
2022-11-26T20:48:53.202Z,101847.25
2022-11-26T20:51:22.151Z,101855.81
2022-11-26T20:53:50.794Z,101865.53
2022-11-26T20:56:22.429Z,101866.47
2022-11-26T20:58:51.049Z,101860.66
2022-11-26T21:01:23.891Z,101859.19
2022-11-26T21:03:52.266Z,101864.50
2022-11-26T21:06:25.942Z,101870.00
2022-11-26T21:09:01.127Z,101865.06
2022-11-26T21:11:29.240Z,101865.50
2022-11-26T21:13:58.600Z,101864.97
2022-11-26T21:16:26.289Z,101865.09
2022-11-26T21:18:56.845Z,101870.41
2022-11-26T21:21:25.452Z,101869.94
2022-11-26T21:23:53.226Z,101876.25
2022-11-26T21:26:22.982Z,101869.13
2022-11-26T21:28:55.409Z,101873.28
2022-11-26T21:31:23.337Z,101871.78
2022-11-26T21:33:58.022Z,101869.16
2022-11-26T21:36:25.460Z,101864.84
2022-11-26T21:38:52.600Z,101865.63
2022-11-26T21:41:20.246Z,101870.72
2022-11-26T21:43:48.236Z,101871.66
2022-11-26T21:46:21.171Z,101868.56
2022-11-26T21:48:48.419Z,101866.84
2022-11-26T21:51:19.638Z,101866.75
2022-11-26T21:53:48.314Z,101868.47
2022-11-26T21:56:17.886Z,101872.78
2022-11-26T21:58:45.124Z,101875.97
2022-11-26T22:01:16.976Z,101875.31
2022-11-26T22:03:46.168Z,101870.78
2022-11-26T22:06:14.070Z,101877.66
2022-11-26T22:08:41.556Z,101869.16
2022-11-26T22:11:14.040Z,101872.63
2022-11-26T22:13:41.452Z,101862.16
2022-11-26T22:16:10.528Z,101867.06
2022-11-26T22:18:42.132Z,101862.41
2022-11-26T22:21:21.371Z,101859.94
2022-11-26T22:23:49.004Z,101867.47
2022-11-26T22:26:15.847Z,101870.22
2022-11-26T22:28:42.981Z,101864.59
2022-11-26T22:31:12.161Z,101854.69
2022-11-26T22:33:39.737Z,101859.53
2022-11-26T22:36:06.830Z,101859.28
2022-11-26T22:38:34.191Z,101857.69
2022-11-26T22:41:03.145Z,101851.78
2022-11-26T22:43:31.200Z,101845.28
2022-11-26T22:45:58.883Z,101847.31
2022-11-26T22:48:25.937Z,101845.75
2022-11-26T22:50:54.526Z,101842.47
2022-11-26T22:53:22.639Z,101835.00
2022-11-26T22:55:57.301Z,101837.47
2022-11-26T22:58:25.697Z,101844.69
2022-11-26T23:00:59.201Z,101840.16
2022-11-26T23:03:27.864Z,101842.53
2022-11-26T23:05:55.461Z,101840.97
2022-11-26T23:08:22.981Z,101838.03
2022-11-26T23:10:50.041Z,101841.22
2022-11-26T23:13:17.641Z,101841.13
2022-11-26T23:15:45.994Z,101833.97
2022-11-26T23:18:15.254Z,101836.84
2022-11-26T23:20:43.020Z,101837.28
2022-11-26T23:23:10.606Z,101839.84
2022-11-26T23:25:39.307Z,101840.94
2022-11-26T23:28:06.864Z,101840.59
2022-11-26T23:30:35.098Z,101850.31
2022-11-26T23:33:02.023Z,101847.25
2022-11-26T23:35:29.198Z,101847.50
2022-11-26T23:37:56.252Z,101844.09
2022-11-26T23:40:23.217Z,101853.78
2022-11-26T23:42:50.125Z,101844.44
2022-11-26T23:45:17.184Z,101846.16
2022-11-26T23:47:44.106Z,101845.31
2022-11-26T23:50:12.494Z,101848.22
2022-11-26T23:52:39.375Z,101853.44
2022-11-26T23:55:06.718Z,101853.59
2022-11-26T23:57:33.612Z,101857.03
